Date,TemperatureHighF,TemperatureAvgF,TemperatureLowF,DewpointHighF,DewpointAvgF,DewpointLowF,HumidityHigh,HumidityAvg,HumidityLow,PressureMaxIn,PressureMinIn,WindSpeedMaxMPH,WindSpeedAvgMPH,GustSpeedMaxMPH,PrecipitationSumIn
2013-1-2,33.8,28.3,23.6,18.5,16.1,9.4,72,61,37,29.58,29.47,9,1,9,0.01
2013-1-3,34.9,25.9,17.1,22.0,17.1,11.6,82,70,50,29.61,29.53,13,1,13,0.00
2013-1-4,30.2,27.4,24.8,21.4,19.5,17.2,75,72,66,29.67,29.59,16,4,16,0.00
2013-1-5,41.0,31.8,21.4,28.4,22.1,15.6,80,68,51,29.77,29.56,12,1,12,0.03
2013-1-6,39.4,36.3,33.3,29.4,27.6,24.6,78,70,66,29.58,29.45,12,2,12,0.01
2013-1-7,34.0,33.9,33.8,27.9,27.9,27.8,79,79,78,29.58,29.58,5,3,5,0.00
2013-1-9,43.9,42.9,42.5,39.7,38.8,38.3,86,85,85,29.79,29.76,2,0,2,0.00
2013-2-15,41.4,34.0,31.0,31.2,28.3,24.9,85,80,66,29.85,29.77,8,1,8,0.01
2013-2-16,31.7,27.3,20.7,25.7,18.8,12.8,81,70,57,29.81,29.67,8,2,8,0.00
2013-2-17,21.8,16.5,11.7,14.5,6.3,1.6,79,64,53,29.97,29.69,16,4,16,0.00
2013-2-18,47.9,27.3,10.6,28.5,16.5,4.2,77,65,45,30.09,29.89,6,1,6,0.00
2013-2-19,43.2,34.2,28.1,38.4,26.6,14.9,87,74,55,29.90,29.58,15,2,15,0.19
2013-2-20,31.1,24.9,19.8,17.4,13.9,10.8,70,63,53,29.94,29.73,20,4,20,0.00
2013-2-21,43.2,27.0,13.3,24.8,15.7,7.0,76,63,43,30.03,29.90,10,1,10,0.02
2013-2-22,35.3,32.0,28.8,30.0,25.9,20.7,87,79,65,30.05,29.89,2,0,2,0.02
2013-2-23,59.6,40.7,32.4,46.7,33.7,29.2,91,78,48,29.89,29.65,5,0,5,0.00
2013-2-24,47.5,36.4,27.7,31.7,25.0,19.0,85,65,39,29.88,29.66,19,4,19,0.00
2013-2-25,44.1,31.2,20.3,25.0,19.9,14.7,81,64,43,29.96,29.86,5,1,5,0.00
2013-2-26,37.8,33.4,28.4,35.5,27.8,18.4,92,80,65,29.91,29.45,6,0,6,0.12
2013-2-27,42.3,37.8,33.3,35.2,32.3,29.8,93,81,67,29.56,29.43,12,2,12,0.02
2013-2-28,33.7,31.9,30.8,30.0,28.4,27.0,88,87,85,29.52,29.50,4,0,4,0.00
2013-3-1,30.4,29.1,27.5,23.5,22.3,20.6,77,75,74,29.71,29.67,6,1,6,0.00
2013-3-2,29.9,26.0,23.8,20.9,18.6,16.7,79,73,64,29.70,29.65,13,2,13,0.00
2013-3-3,27.7,23.9,21.4,18.5,15.7,11.6,78,71,62,29.76,29.67,11,2,11,0.00
2013-3-4,41.8,28.5,19.3,23.1,15.4,11.0,73,59,36,29.86,29.75,13,2,13,0.05
2013-3-5,42.8,34.1,26.3,35.1,27.0,17.1,89,76,64,29.85,29.44,3,0,3,0.04
2013-3-6,36.0,32.1,31.0,30.2,27.6,25.7,88,83,73,29.89,29.43,10,1,10,0.05
2013-3-7,36.4,32.3,30.2,28.1,26.8,24.5,90,80,67,30.02,29.87,13,2,13,0.04
2013-3-8,39.8,31.7,25.6,27.1,23.9,19.9,83,73,58,30.14,29.97,15,3,15,0.18
2013-3-9,60.8,36.2,18.9,36.9,24.3,15.0,87,65,33,30.16,30.02,4,0,4,0.05
2013-3-10,62.6,41.5,26.5,41.6,29.3,22.1,85,64,36,30.06,29.96,4,0,4,0.00
2013-3-11,53.5,43.5,35.1,46.9,35.3,29.1,90,73,62,29.99,29.68,7,1,7,0.03
2013-3-12,50.0,39.9,33.3,46.9,32.9,25.4,90,76,64,29.82,29.62,14,4,14,0.18
2013-3-13,40.3,32.1,24.7,28.8,23.7,16.6,84,71,53,29.90,29.75,17,3,17,0.01
2013-3-14,24.8,23.9,23.0,18.4,16.8,15.4,77,74,71,29.91,29.89,12,2,12,0.00
2013-3-15,55.8,49.3,42.5,35.2,32.7,30.3,66,53,44,29.70,29.68,9,2,9,0.00
2013-3-16,65.5,48.8,37.1,54.2,42.1,30.9,91,78,59,29.71,29.46,19,2,19,0.11
2013-3-17,47.0,40.6,35.8,40.5,36.3,32.7,90,85,77,29.92,29.71,7,0,10,0.05
2013-3-18,35.8,32.9,30.8,33.1,30.3,28.0,92,90,89,29.91,29.64,2,0,2,0.09
2013-3-19,53.5,39.7,33.1,35.3,23.5,3.5,94,59,24,29.81,29.58,23,4,23,0.10
2013-3-20,49.3,36.2,28.4,26.8,15.0,6.8,80,43,27,29.82,29.59,16,4,17,0.00
2013-3-21,30.4,23.2,18.5,23.4,13.2,8.8,77,66,51,29.73,29.57,14,3,14,0.00
2013-3-22,46.4,29.4,18.5,21.4,14.0,9.5,71,54,32,29.80,29.70,12,3,12,0.00
2013-3-23,50.6,34.0,20.0,26.1,17.7,12.4,76,53,33,29.82,29.72,10,1,10,0.00
2013-3-24,36.4,31.3,27.9,28.7,23.0,16.3,84,72,57,29.75,29.35,2,0,3,0.01
2013-3-25,37.4,31.6,28.8,30.5,25.8,22.6,87,79,64,29.55,29.30,10,1,10,0.00
2013-3-26,30.4,30.2,29.9,24.9,24.6,24.3,81,80,78,29.59,29.55,8,2,8,0.00
2013-3-27,36.5,33.2,31.5,27.6,25.4,23.9,78,73,64,29.98,29.93,10,3,10,0.02
2013-3-28,40.7,34.8,30.4,27.3,24.4,21.1,77,66,51,30.04,29.95,14,3,14,0.04
2013-3-29,54.0,38.5,32.4,30.4,26.7,23.4,77,64,37,30.06,29.99,10,2,10,0.00
2013-3-30,61.2,52.1,38.7,37.8,29.1,23.9,62,42,32,30.00,29.88,8,1,8,0.01
2013-3-31,50.4,42.1,35.8,47.1,36.5,25.6,90,81,60,29.88,29.62,8,1,8,0.04
2013-4-1,50.8,40.3,31.0,43.1,34.5,23.3,92,80,63,29.82,29.63,18,2,18,0.04
2013-4-2,46.6,34.3,27.7,23.6,17.8,12.2,74,53,30,29.95,29.81,14,2,14,0.00
2013-4-3,48.2,33.9,22.9,21.4,14.9,9.7,75,48,27,30.12,29.95,15,2,15,0.00
2013-4-4,47.5,33.7,24.7,27.9,19.7,12.4,82,58,33,30.12,29.81,4,0,4,0.00
2013-4-5,57.6,43.2,32.8,36.5,29.4,24.5,90,62,33,29.88,29.74,12,2,12,0.12
2013-4-6,68.0,46.2,27.7,32.8,26.5,18.5,83,51,19,30.05,29.88,7,1,7,0.00
2013-4-7,73.3,54.0,35.8,43.8,33.7,22.8,65,47,33,29.98,29.83,8,1,8,0.00
2013-4-8,80.1,59.8,40.7,51.7,41.9,33.5,79,54,34,29.96,29.83,8,1,8,0.00
2013-4-9,85.0,65.8,50.4,57.2,48.8,42.5,79,56,34,30.00,29.88,8,1,8,0.00
2013-4-10,90.4,69.6,50.8,59.1,49.6,42.9,79,53,29,29.93,29.77,11,2,11,0.00
2013-4-11,61.7,58.2,54.0,46.1,45.1,43.9,69,62,54,29.79,29.77,1,0,1,0.00
2013-4-12,54.2,50.0,46.4,37.4,34.9,32.9,61,56,52,29.71,29.63,11,5,11,0.00
2013-4-13,69.5,53.0,42.3,41.6,32.4,25.4,70,48,26,29.84,29.68,17,3,17,0.00
2013-4-14,78.1,57.0,36.7,44.5,35.0,25.9,77,47,23,29.92,29.81,8,1,9,0.00
2013-4-15,59.9,52.7,49.0,50.3,46.1,37.4,89,80,44,30.04,29.87,6,0,6,0.43
2013-4-16,81.4,64.0,52.0,62.2,54.4,48.5,91,74,47,30.11,29.97,11,1,11,0.00
2013-4-17,77.6,64.6,55.6,64.0,55.8,51.0,93,75,50,30.08,29.98,5,1,5,0.03
2013-4-18,76.7,64.4,55.8,61.7,55.7,50.8,89,74,57,29.99,29.79,8,1,8,0.00
2013-4-19,65.2,57.7,42.8,60.2,51.8,34.3,90,81,71,29.80,29.51,17,2,17,0.59
2013-4-20,54.5,43.2,34.7,35.7,27.1,22.9,76,55,33,30.10,29.71,13,5,22,0.00
2013-4-21,64.4,45.2,30.2,36.3,28.2,23.0,79,55,27,30.25,30.10,7,1,7,0.00
2013-4-22,65.3,47.1,31.1,35.1,27.6,22.0,79,50,25,30.22,30.07,4,1,6,0.00
2013-4-23,76.9,53.7,32.8,47.9,34.9,24.7,77,52,28,30.10,29.88,6,1,6,0.00
2013-4-24,72.9,54.2,44.8,53.3,43.9,36.6,76,69,42,29.94,29.71,21,3,21,0.03
2013-4-25,66.2,47.8,35.1,38.3,29.2,14.6,76,53,18,30.12,29.92,13,3,13,0.00
2013-4-26,72.4,51.0,31.3,40.1,30.4,23.9,78,49,23,30.21,30.10,7,1,7,0.00
2013-4-27,76.0,55.7,40.5,43.8,36.7,26.1,71,51,24,30.16,30.05,7,1,7,0.00
2013-4-28,54.7,50.8,48.8,49.1,45.4,40.8,91,82,63,30.06,29.87,7,0,7,0.37
2013-4-29,72.4,56.1,48.2,58.8,50.0,45.8,91,81,56,29.89,29.80,5,1,5,0.01
2013-4-30,78.5,61.2,50.6,58.8,51.7,47.2,92,73,44,30.06,29.86,7,1,7,0.00
2013-5-1,74.7,61.1,53.3,54.8,47.3,37.7,84,63,39,30.17,30.04,6,1,6,0.00
2013-5-2,78.8,62.2,50.4,51.1,43.8,36.9,69,52,33,30.15,30.07,6,1,6,0.00
2013-5-3,72.4,55.5,39.8,45.7,40.5,34.1,84,60,31,30.11,30.02,9,1,9,0.00
2013-5-4,68.2,54.0,39.6,43.6,38.4,31.4,77,58,28,30.04,29.91,7,1,7,0.00
2013-5-5,70.9,54.6,38.9,44.8,37.8,22.5,76,56,21,29.96,29.84,7,1,7,0.00
2013-5-6,63.4,52.7,48.8,52.6,46.4,42.8,88,80,65,29.88,29.82,6,1,8,0.00
2013-5-7,59.0,52.6,49.0,56.4,50.1,47.0,94,91,84,29.80,29.73,9,1,9,0.49
2013-5-8,63.4,52.6,47.5,55.4,49.3,45.1,95,89,66,29.84,29.74,3,0,5,0.49
2013-5-9,75.1,58.4,46.8,58.8,49.2,45.1,95,75,40,29.92,29.80,12,1,13,0.00
2013-5-10,82.6,61.4,49.1,61.5,53.1,45.7,90,77,42,29.93,29.78,8,1,8,0.37
2013-5-11,74.9,61.0,55.3,61.1,54.8,48.3,93,81,52,29.78,29.66,10,2,10,0.46
2013-5-12,55.1,48.3,38.3,48.2,34.7,28.2,84,61,40,29.87,29.67,14,3,14,0.00
2013-5-13,57.1,41.4,32.4,36.2,31.4,26.3,83,69,42,29.98,29.81,14,2,14,0.00
2013-5-14,71.3,48.8,31.1,41.5,33.7,26.8,89,62,28,30.01,29.82,6,1,6,0.00
2013-5-15,87.3,68.1,47.5,59.8,48.6,36.7,82,54,26,29.85,29.75,17,2,17,0.00
2013-5-16,69.8,62.6,55.1,53.7,50.7,48.5,89,68,48,29.89,29.78,7,1,7,0.21
2013-5-17,76.5,61.8,53.6,63.4,56.2,51.0,92,83,57,29.99,29.87,4,0,4,0.01
2013-5-18,74.5,63.0,58.0,65.8,58.9,55.4,93,87,67,30.00,29.93,5,0,5,0.01
2013-5-19,64.3,61.7,59.6,62.1,59.5,57.6,94,92,90,29.98,29.90,4,0,4,0.05
2013-5-20,80.1,67.2,59.2,68.9,62.2,57.3,95,85,66,29.95,29.87,5,0,5,0.00
2013-5-21,86.2,71.2,60.7,68.6,61.8,58.3,93,75,41,29.91,29.78,5,0,5,0.04
2013-5-22,83.7,65.3,57.4,67.3,59.8,54.2,92,83,44,29.86,29.76,11,0,11,0.04
2013-5-23,79.7,65.4,60.1,65.5,58.9,52.2,94,81,48,29.79,29.66,13,1,13,0.05
2013-5-24,60.1,49.9,43.0,52.6,41.5,33.1,87,73,53,30.02,29.71,14,2,14,0.01
2013-5-25,63.0,48.3,33.7,36.8,32.9,24.7,84,59,30,30.07,30.00,12,2,12,0.00
2013-5-26,69.3,52.8,38.2,41.5,33.1,24.4,88,53,21,30.08,30.01,8,1,8,0.00
2013-5-27,71.3,53.8,38.3,53.7,42.4,31.4,80,66,51,30.10,29.98,5,0,5,0.00
2013-5-28,82.3,65.5,50.0,62.8,53.5,45.8,88,68,42,30.03,29.93,8,1,8,0.00
2013-5-29,86.6,70.3,55.8,62.2,56.6,51.5,91,65,38,30.04,29.98,8,1,8,0.00
2013-5-30,88.9,68.7,54.9,65.6,57.0,50.4,88,70,36,30.11,30.02,7,1,7,0.00
2013-6-4,80.1,71.2,58.1,59.0,53.5,47.3,68,54,45,29.97,29.89,6,1,6,0.00
2013-6-5,58.0,56.1,55.4,48.8,47.8,47.0,77,74,68,29.97,29.94,1,0,1,0.00
2013-6-6,65.2,64.2,62.6,62.8,61.8,60.3,92,92,92,29.71,29.70,1,0,1,0.00
2013-6-7,62.1,62.0,61.9,60.1,60.1,60.0,93,93,93,29.71,29.70,0,0,0,0.00
2013-6-8,79.9,72.0,59.0,65.9,58.5,50.9,83,64,40,29.97,29.82,7,1,7,0.00
2013-6-9,85.0,67.9,56.0,66.0,58.7,52.1,90,75,38,30.02,29.91,4,0,4,0.09
2013-6-10,71.6,65.4,63.5,68.9,62.6,59.9,94,91,81,29.95,29.73,15,0,15,0.51
2013-6-11,74.3,74.1,73.6,62.5,61.5,60.0,67,65,63,29.80,29.80,7,2,7,0.00
2013-6-12,85.0,82.9,74.0,70.6,68.2,61.0,67,61,56,29.82,29.80,11,4,11,0.00
2013-6-13,84.8,84.8,84.8,68.4,68.4,68.4,58,58,58,29.80,29.80,1,1,1,0.00
2013-6-17,82.4,82.1,81.5,64.2,63.6,62.6,55,54,53,29.80,29.79,4,2,4,0.00
2013-6-18,81.4,81.4,81.4,63.0,63.0,63.0,54,54,54,29.80,29.80,3,3,3,0.00
2013-6-19,57.8,57.3,57.1,55.9,55.4,55.1,94,94,93,29.87,29.86,2,0,2,0.00
2013-6-24,81.0,71.3,63.7,71.5,65.9,60.7,91,83,68,30.08,29.95,3,0,4,0.14
2013-6-25,85.9,70.9,61.9,73.1,65.0,59.6,94,83,50,30.01,29.86,5,0,5,0.01
2013-6-26,82.4,72.4,65.3,70.8,64.8,61.2,94,79,51,29.89,29.77,9,1,9,0.00
2013-6-27,73.8,67.5,63.7,68.3,63.8,60.8,93,88,77,29.79,29.60,5,0,6,0.02
2013-6-28,83.9,71.8,63.7,67.1,61.9,56.4,94,74,41,29.62,29.47,16,2,16,0.07
2013-6-29,79.9,66.9,58.0,65.6,60.0,55.1,93,80,55,29.62,29.50,6,0,6,0.02
2013-6-30,86.2,69.8,59.2,66.2,61.5,56.3,92,77,44,29.75,29.61,4,0,4,0.00
2013-7-1,79.2,68.2,62.6,69.8,63.3,58.0,91,85,71,29.84,29.71,4,0,4,0.07
2013-7-2,77.4,68.6,64.8,69.8,65.1,62.2,94,89,72,30.00,29.83,3,0,3,0.07
2013-7-3,75.1,68.7,65.5,70.5,65.7,63.1,94,90,79,30.10,29.99,2,0,4,0.21
2013-7-4,81.4,70.5,65.2,72.5,66.9,63.1,95,89,70,30.11,30.03,5,0,5,0.02
2013-7-5,77.2,70.7,66.6,73.1,67.7,64.2,94,90,83,30.10,30.02,3,0,5,0.17
2013-7-6,83.9,71.5,63.9,72.6,66.5,61.9,95,85,65,30.09,29.97,3,0,4,0.00
2013-7-7,78.5,68.1,64.4,71.0,65.0,62.0,94,90,71,30.03,29.93,8,0,8,0.19
2013-7-8,79.6,68.8,63.2,68.4,63.7,61.2,94,84,62,30.03,29.97,6,1,6,0.00
2013-7-9,82.8,70.4,63.7,73.2,66.0,60.8,93,86,71,30.03,29.92,3,0,3,0.01
2013-7-10,74.5,69.0,65.9,71.0,66.8,63.7,94,93,89,29.88,29.83,3,0,3,0.33
2013-7-11,65.9,65.4,65.0,63.7,63.3,62.9,94,93,93,29.83,29.80,2,0,2,0.01
2013-7-14,81.0,74.1,65.9,69.8,65.8,62.0,88,76,65,30.19,30.14,3,1,3,0.00
2013-7-15,89.1,73.6,63.0,72.5,66.3,60.2,93,79,54,30.22,30.13,3,0,4,0.00
2013-7-16,88.9,73.2,65.9,73.7,67.2,63.2,93,83,55,30.21,30.11,5,0,5,0.18
2013-7-17,79.2,78.8,78.7,74.2,74.1,74.0,86,85,85,30.07,30.05,0,0,0,0.00
2013-7-18,86.4,76.6,69.7,76.8,71.3,66.9,91,84,72,30.06,29.98,4,0,4,0.14
2013-7-19,86.6,71.9,67.3,77.8,68.1,65.5,94,88,68,29.99,29.85,8,0,8,0.00
2013-7-20,86.4,73.8,65.9,74.0,67.7,63.5,94,82,60,29.88,29.78,8,1,8,0.00
2013-7-21,78.5,70.1,66.2,72.4,66.8,63.4,93,89,79,29.91,29.81,10,0,10,0.10
2013-7-22,81.4,71.9,67.0,72.7,68.1,65.2,94,88,71,29.86,29.69,3,0,3,0.30
2013-7-23,81.4,71.8,65.9,68.0,65.3,63.3,95,81,57,29.71,29.65,10,1,10,0.00
2013-7-24,78.8,70.1,63.2,67.2,63.4,57.1,93,80,61,29.81,29.65,5,0,5,0.00
2013-7-25,78.8,66.1,58.0,63.7,58.0,53.8,90,76,53,29.94,29.78,5,1,5,0.00
2013-7-26,80.6,65.7,54.4,63.0,56.7,50.9,90,75,47,29.96,29.88,2,0,5,0.00
2013-7-27,68.6,64.2,62.3,66.2,61.3,57.1,94,90,82,29.91,29.78,3,0,3,0.84
2013-7-28,76.7,66.1,58.9,65.8,61.2,54.9,95,85,56,29.91,29.76,6,0,6,0.00
2013-7-29,74.2,61.4,52.9,59.5,53.9,50.6,93,78,51,30.07,29.91,6,1,7,0.01
2013-7-30,78.7,63.6,52.7,64.6,56.8,50.0,92,79,59,30.09,30.01,4,0,4,0.00
2013-7-31,66.4,62.6,60.3,62.7,59.7,57.4,93,90,84,30.02,29.86,2,0,2,0.28
2013-8-1,76.9,66.8,61.0,68.5,62.4,58.8,95,87,63,29.86,29.76,9,1,9,0.08
2013-8-2,78.8,66.1,57.1,64.3,58.4,54.7,94,78,48,29.91,29.81,7,1,7,0.00
2013-8-3,75.6,66.0,59.0,67.3,60.0,56.0,93,82,58,29.90,29.83,7,1,7,0.00
2013-8-4,74.2,64.6,57.4,60.3,56.6,52.1,93,76,54,29.94,29.84,7,1,7,0.00
2013-8-5,76.7,62.5,51.8,61.8,55.2,48.5,91,78,55,29.97,29.86,5,0,5,0.00
2013-8-6,79.4,67.4,59.9,69.1,62.1,55.7,93,84,68,29.89,29.83,2,0,2,0.28
2013-8-7,79.6,69.6,65.7,71.6,66.1,62.7,94,89,73,29.91,29.87,4,0,4,0.47
2013-8-8,75.6,69.6,66.2,72.2,67.6,64.5,95,93,89,29.91,29.86,3,0,3,0.46
2013-8-9,81.4,72.0,68.6,72.5,68.8,66.9,95,90,71,29.88,29.84,4,1,8,0.01
2013-8-12,67.7,67.3,67.0,65.2,64.9,64.5,93,92,91,29.85,29.82,1,0,1,0.00
2013-8-13,78.7,68.6,62.1,69.0,64.4,59.6,95,87,62,29.83,29.70,7,1,7,0.02
2013-8-14,68.2,59.5,50.2,59.6,50.8,45.2,93,74,53,29.98,29.76,9,2,9,0.00
2013-8-15,50.0,49.5,49.1,45.9,45.5,44.8,88,86,85,29.98,29.96,1,0,1,0.00
2013-8-16,63.7,61.3,59.4,56.7,55.2,54.3,83,80,77,30.01,29.98,1,0,1,0.00
2013-8-17,68.0,65.6,59.4,60.3,58.7,54.3,83,78,73,30.05,30.01,3,1,3,0.00
2013-8-18,68.0,64.4,63.0,63.5,62.0,59.9,93,92,75,30.04,29.99,1,0,1,0.12
2013-8-19,75.6,66.1,61.9,70.7,63.5,59.3,95,92,81,30.02,29.93,3,0,3,0.04
2013-8-20,81.0,67.4,58.7,69.8,62.4,56.7,95,85,61,30.04,29.97,3,0,3,0.00
2013-8-21,79.6,67.6,63.5,71.4,64.3,60.8,94,89,71,30.07,29.97,6,0,6,0.20
2013-8-22,79.6,67.4,58.9,72.1,63.2,57.2,95,87,63,30.01,29.89,8,1,8,0.00
2013-8-23,76.9,66.3,59.9,67.0,62.3,57.1,95,87,66,29.99,29.87,7,1,7,0.13
2013-8-24,76.5,63.6,54.7,64.1,57.7,52.4,93,82,57,30.17,29.99,4,0,4,0.00
2013-8-25,77.2,63.7,55.3,63.7,57.3,52.9,93,81,58,30.23,30.12,5,0,5,0.00
2013-8-26,79.6,64.3,53.6,66.0,57.8,51.3,93,81,58,30.16,29.96,4,0,4,0.00
2013-8-27,78.8,69.0,60.1,68.5,63.4,57.0,94,83,64,29.97,29.85,7,1,7,0.00
2013-8-28,82.3,70.8,67.0,72.5,67.0,63.6,95,88,61,29.89,29.73,8,0,8,0.36
2013-8-29,81.7,71.5,67.3,73.6,68.4,65.5,95,91,70,29.86,29.76,5,0,5,0.03
2013-9-3,76.9,76.5,76.1,60.1,59.0,56.3,57,55,51,29.77,29.76,8,2,8,0.00
2013-9-5,76.0,72.7,68.8,62.5,61.3,59.5,77,68,62,29.98,29.95,6,2,6,0.00
2013-9-6,74.5,70.8,65.7,61.3,60.0,57.3,79,69,59,30.02,29.95,2,1,2,0.00
2013-9-7,78.1,69.0,56.7,62.9,55.0,50.7,84,63,39,29.95,29.85,4,1,4,0.00
2013-9-8,80.1,65.1,54.2,65.9,58.7,50.7,91,81,61,29.91,29.82,2,0,2,0.00
2013-9-9,76.1,67.5,61.0,68.6,63.4,58.4,93,87,77,30.02,29.91,2,0,2,0.00
2013-9-10,85.3,72.0,64.6,73.8,66.8,62.3,94,84,64,30.07,29.99,3,0,3,0.00
2013-9-11,83.9,70.2,65.0,73.4,65.9,62.6,94,87,66,30.07,29.95,6,0,6,0.00
2013-9-12,79.6,68.6,63.0,74.2,64.9,59.1,95,89,61,29.96,29.72,13,1,13,0.06
2013-9-13,61.9,60.9,59.8,58.7,58.1,57.4,92,90,89,29.71,29.67,0,0,0,0.00
2013-9-17,64.1,55.7,49.9,53.4,49.2,45.6,86,79,67,30.09,30.06,2,0,2,0.00
2013-9-18,67.3,55.6,45.5,58.4,50.8,42.8,91,84,71,30.09,29.96,4,0,4,0.00
2013-9-19,74.3,63.0,57.6,66.6,58.5,54.2,90,86,75,29.99,29.90,4,0,4,0.01
2013-9-30,65.0,63.7,63.2,57.8,56.9,56.5,80,79,77,29.84,29.84,0,0,0,0.00
2013-10-1,70.9,61.8,54.5,58.1,53.6,47.6,79,75,60,29.94,29.84,7,0,7,0.00
2013-10-2,75.2,60.4,50.4,64.6,50.4,39.9,79,70,55,29.98,29.91,6,1,6,0.00
2013-10-3,75.6,60.6,51.8,64.4,51.3,42.0,77,72,62,29.99,29.91,2,0,2,0.00
2013-10-8,61.4,51.1,45.4,50.0,42.8,37.9,78,73,64,30.04,29.99,1,0,1,0.00
2013-10-9,63.0,48.1,39.4,50.1,38.3,30.4,77,69,52,30.06,29.99,3,0,3,0.00
2013-10-13,63.2,63.2,63.2,54.4,54.4,54.4,73,73,73,30.04,30.04,0,0,0,0.00
2013-10-15,68.6,58.7,51.5,56.6,44.1,20.2,72,60,27,30.00,29.89,2,0,2,0.00
2013-10-16,67.0,56.6,47.9,56.9,40.9,19.2,71,57,28,29.89,29.76,3,0,3,0.01
2013-10-17,61.7,59.0,57.2,46.4,32.5,12.1,62,39,15,29.78,29.63,2,0,2,0.13
2013-11-11,54.4,45.6,41.2,27.9,24.9,21.1,58,45,34,29.90,29.83,4,1,4,0.00
2013-11-12,50.2,34.6,25.0,35.1,23.5,15.5,77,65,36,30.14,29.80,12,3,12,0.00
2013-11-13,36.9,27.4,22.0,23.0,16.5,13.9,76,64,44,30.20,30.12,10,2,10,0.01
2013-11-14,49.5,31.8,19.6,25.5,17.8,12.9,76,59,38,30.12,30.01,4,0,4,0.00
2013-11-15,56.5,49.7,38.9,36.2,30.9,19.2,72,51,28,30.02,29.92,4,1,4,0.11
2013-11-16,61.2,48.5,41.0,51.0,31.6,7.9,70,53,27,30.04,29.94,4,0,4,0.00
2013-11-17,61.6,53.8,49.9,50.4,31.4,6.1,67,44,17,29.96,29.68,5,0,5,0.00
2013-11-18,55.1,47.4,39.2,36.5,29.7,26.8,63,51,38,29.79,29.65,18,4,18,0.28
2013-11-19,40.0,34.6,28.6,28.2,24.7,21.1,73,67,58,30.05,29.78,16,2,16,0.00
2013-11-20,45.7,34.0,26.3,30.5,21.6,17.7,74,62,36,30.17,30.04,5,0,5,0.00
2013-11-21,47.2,38.7,30.4,37.9,29.5,20.9,72,69,59,30.21,30.10,2,0,2,0.00
2013-11-22,54.4,48.0,40.9,30.0,10.7,-5.0,61,25,1,30.10,29.87,8,0,8,0.05
2013-11-23,46.1,36.9,21.2,34.9,20.7,-7.7,73,54,11,29.96,29.86,16,4,16,0.00
2013-11-24,23.0,18.0,14.0,12.2,6.1,3.5,68,60,47,30.14,29.96,16,3,16,0.00
2013-11-25,38.5,25.4,12.6,22.0,12.5,5.0,75,60,36,30.15,29.99,4,1,5,0.00
2013-11-26,37.8,33.7,29.5,21.8,4.1,-17.1,71,33,1,30.00,29.42,2,0,2,0.79
2013-11-27,38.5,28.6,20.2,22.5,11.2,-17.4,74,55,1,29.82,29.40,21,3,21,0.01
2013-11-28,33.5,25.0,17.1,24.2,16.3,10.2,75,69,59,30.10,29.81,9,1,9,0.00
2013-11-29,39.4,25.1,19.8,25.2,16.8,11.7,74,71,55,30.24,30.09,7,0,7,0.01
2013-12-1,39.2,39.2,39.2,24.8,24.8,24.8,56,56,56,30.20,30.20,1,1,1,0.00
2013-12-2,49.0,44.0,35.3,38.4,33.9,21.2,71,67,56,29.67,29.59,4,0,4,0.00
2013-12-3,51.3,39.7,32.0,41.1,24.0,6.9,69,54,31,29.74,29.62,4,0,4,0.00
2013-12-4,60.3,47.6,38.3,49.3,29.2,3.7,69,50,23,29.81,29.72,5,0,5,0.00
2013-12-5,59.4,49.0,41.8,42.6,9.9,-17.5,54,21,1,29.84,29.76,4,0,4,0.03
2013-12-6,50.4,44.9,39.2,-4.2,-8.4,-12.8,1,1,1,29.86,29.68,11,1,11,0.36
2013-12-7,39.2,32.4,25.7,26.7,3.6,-18.6,70,36,1,30.16,29.84,10,1,10,0.00
2013-12-8,32.8,28.8,25.9,13.1,-1.4,-20.3,54,29,1,30.15,29.90,3,0,3,0.01
2013-12-9,40.0,34.0,30.2,-12.2,-16.9,-19.8,1,1,1,29.90,29.77,3,0,3,0.27
2013-12-10,33.5,28.8,21.6,23.0,2.4,-41.9,73,40,1,29.95,29.68,17,2,17,0.00
2013-12-11,22.1,21.4,20.0,15.0,14.1,13.0,75,73,72,30.01,29.94,9,2,9,0.00
2013-12-17,38.9,34.2,28.8,24.7,14.7,-17.2,72,47,11,29.77,29.66,5,1,5,0.08
2013-12-18,36.4,27.6,21.2,26.5,19.3,13.1,75,71,56,29.94,29.76,9,1,9,0.01
2013-12-19,50.8,32.0,16.4,33.6,20.6,6.4,73,63,45,29.96,29.89,8,1,8,0.02
2013-12-20,49.3,37.8,29.5,35.9,26.0,12.9,72,63,49,29.89,29.80,3,0,3,0.01
2013-12-21,58.0,45.9,35.1,47.2,28.9,-22.3,70,54,5,29.82,29.70,6,1,6,0.00